M I D A S
Marine Information and Data Acquisition System
Tripno 2261 of the Zeeleeuw from 2012-02-08 07:52:53 to 2012-02-08 13:34:05
Back to CruiseResearch ActivitiesStationsMapUnderway DataData graphs

EquipmentUnitsComment
TimeDGPSUTC
LatitudeDGPSDM.mWGS84
LongitudeDGPSDM.mWGS84
HeadingGyrodeg 
SOGDGPSknotsSpeed over ground
COGDGPSdegCourse over ground
DepthEcho soundermeters200 kHz
Missing or incorrect values are displayed as -999
Navigation data collected by the RV Zeeleeuw from 2012-02-08 07:32:44 to 2012-02-08 13:44:23
                                                                                    Next 1000 lines
Time Latitude Longitude Heading SOG COG Depth
2012-02-08 07:32:55 51°13.637 2°56.018 126.4 0.1 11 -999
2012-02-08 07:32:59 51°13.637 2°56.018 126.4 0.1 351 -999
2012-02-08 07:33:04 51°13.637 2°56.018 126.4 -999 159 -999
2012-02-08 07:33:10 51°13.637 2°56.019 126.4 -999 143 -999
2012-02-08 07:33:14 51°13.637 2°56.019 126.4 -999 206 -999
2012-02-08 07:33:20 51°13.637 2°56.019 126.4 -999 179 -999
2012-02-08 07:33:24 51°13.637 2°56.019 126.4 0.1 197 -999
2012-02-08 07:33:29 51°13.637 2°56.019 126.4 -999 359 -999
2012-02-08 07:33:34 51°13.637 2°56.019 126.4 -999 57 -999
2012-02-08 07:33:39 51°13.637 2°56.019 126.4 0.1 188 -999
2012-02-08 07:33:44 51°13.637 2°56.019 126.4 -999 9 -999
2012-02-08 07:33:49 51°13.637 2°56.019 126.4 0.1 5 -999
2012-02-08 07:33:54 51°13.636 2°56.018 126.4 -999 95 -999
2012-02-08 07:34:00 51°13.636 2°56.018 126.4 -999 249 -999
2012-02-08 07:34:05 51°13.636 2°56.018 126.4 0.1 180 -999
2012-02-08 07:34:09 51°13.636 2°56.019 126.4 -999 149 -999
2012-02-08 07:34:14 51°13.636 2°56.019 126.4 0.1 134 -999
2012-02-08 07:34:19 51°13.636 2°56.018 126.4 0.2 13 -999
2012-02-08 07:34:24 51°13.636 2°56.018 126.4 -999 327 -999
2012-02-08 07:34:30 51°13.635 2°56.019 126.4 0.1 150 -999
2012-02-08 07:34:34 51°13.635 2°56.018 126.4 0.1 138 -999
2012-02-08 07:34:40 51°13.635 2°56.019 126.4 0.1 163 -999
2012-02-08 07:34:45 51°13.635 2°56.019 126.4 0.2 167 -999
2012-02-08 07:34:49 51°13.635 2°56.019 126.4 0.2 182 -999
2012-02-08 07:34:54 51°13.635 2°56.018 126.4 0.1 181 -999
2012-02-08 07:34:59 51°13.636 2°56.018 126.4 0.1 324 -999
2012-02-08 07:35:04 51°13.636 2°56.018 126.4 0.2 338 -999
2012-02-08 07:35:09 51°13.636 2°56.017 126.4 0.2 327 -999
2012-02-08 07:35:14 51°13.636 2°56.018 126.4 -999 225 -999
2012-02-08 07:35:19 51°13.636 2°56.018 126.4 0.1 18 -999
2012-02-08 07:35:24 51°13.635 2°56.019 126.4 0.1 89 -999
2012-02-08 07:35:30 51°13.635 2°56.018 126.4 0.2 168 -999
2012-02-08 07:35:35 51°13.636 2°56.018 126.4 0.1 338 -999
2012-02-08 07:35:39 51°13.636 2°56.018 126.4 0.1 357 -999
2012-02-08 07:35:45 51°13.636 2°56.018 126.4 0.1 343 -999
2012-02-08 07:35:50 51°13.636 2°56.018 126.4 -999 269 -999
2012-02-08 07:35:54 51°13.636 2°56.018 126.4 -999 264 -999
2012-02-08 07:35:59 51°13.636 2°56.018 126.4 0.1 344 -999
2012-02-08 07:36:04 51°13.636 2°56.018 126.4 0.1 263 -999
2012-02-08 07:36:10 51°13.636 2°56.018 126.4 0.2 177 -999
2012-02-08 07:36:14 51°13.635 2°56.018 126.4 0.2 188 -999
2012-02-08 07:36:19 51°13.636 2°56.019 126.4 0.1 160 -999
2012-02-08 07:36:24 51°13.636 2°56.018 126.4 0.1 64 -999
2012-02-08 07:36:29 51°13.636 2°56.018 126.4 0.2 343 -999
2012-02-08 07:36:34 51°13.636 2°56.018 126.4 0.3 354 -999
2012-02-08 07:36:39 51°13.636 2°56.018 126.4 0.1 -999 -999
2012-02-08 07:36:44 51°13.636 2°56.018 126.4 0.1 -999 -999
2012-02-08 07:36:50 51°13.636 2°56.018 126.4 0.1 184 -999
2012-02-08 07:36:55 51°13.636 2°56.018 126.4 -999 190 -999
2012-02-08 07:36:59 51°13.636 2°56.018 126.4 -999 210 -999
2012-02-08 07:37:04 51°13.636 2°56.018 126.4 -999 219 -999
2012-02-08 07:37:09 51°13.636 2°56.018 126.4 0.1 4 -999
2012-02-08 07:37:14 51°13.636 2°56.019 126.4 0.2 26 -999
2012-02-08 07:37:19 51°13.636 2°56.019 126.4 0.1 186 -999
2012-02-08 07:37:24 51°13.636 2°56.018 126.4 0.1 193 -999
2012-02-08 07:37:29 51°13.636 2°56.019 126.4 0.1 131 -999
2012-02-08 07:37:34 51°13.636 2°56.019 126.4 0.1 93 -999
2012-02-08 07:37:40 51°13.636 2°56.018 126.4 0.1 248 -999
2012-02-08 07:37:45 51°13.637 2°56.017 126.4 0.2 302 -999
2012-02-08 07:37:49 51°13.637 2°56.018 126.4 0.1 353 -999
2012-02-08 07:37:54 51°13.636 2°56.018 126.4 0.1 58 -999
2012-02-08 07:38:00 51°13.636 2°56.019 126.4 0.1 104 -999
2012-02-08 07:38:04 51°13.636 2°56.019 126.4 0.1 76 -999
2012-02-08 07:38:09 51°13.636 2°56.019 126.4 -999 163 -999
2012-02-08 07:38:13 51°13.636 2°56.019 126.4 0.1 130 -999
2012-02-08 07:38:19 51°13.635 2°56.019 126.4 0.1 125 -999
2012-02-08 07:38:25 51°13.635 2°56.019 126.4 -999 192 -999
2012-02-08 07:38:29 51°13.636 2°56.018 126.4 0.2 283 -999
2012-02-08 07:38:34 51°13.636 2°56.018 126.4 0.2 284 -999
2012-02-08 07:38:39 51°13.636 2°56.018 126.4 0.1 341 -999
2012-02-08 07:38:44 51°13.636 2°56.019 126.4 0.1 65 -999
2012-02-08 07:38:49 51°13.635 2°56.019 126.4 0.1 140 -999
2012-02-08 07:38:55 51°13.635 2°56.019 126.4 0.1 191 -999
2012-02-08 07:38:59 51°13.635 2°56.019 126.4 0.1 276 -999
2012-02-08 07:39:04 51°13.636 2°56.019 126.4 0.1 196 -999
2012-02-08 07:39:10 51°13.636 2°56.019 126.4 0.1 131 -999
2012-02-08 07:39:14 51°13.636 2°56.019 126.4 0.1 300 -999
2012-02-08 07:39:19 51°13.636 2°56.019 126.4 0.1 299 -999
2012-02-08 07:39:24 51°13.636 2°56.019 126.4 -999 276 -999
2012-02-08 07:39:29 51°13.636 2°56.019 126.4 0.1 268 -999
2012-02-08 07:39:34 51°13.636 2°56.019 126.4 0.1 257 -999
2012-02-08 07:39:39 51°13.636 2°56.019 126.4 -999 221 -999
2012-02-08 07:39:44 51°13.636 2°56.019 126.4 -999 262 -999
2012-02-08 07:39:48 51°13.636 2°56.019 126.4 -999 333 -999
2012-02-08 07:39:54 51°13.636 2°56.019 126.4 -999 68 -999
2012-02-08 07:39:59 51°13.636 2°56.018 126.4 0.1 283 -999
2012-02-08 07:40:03 51°13.637 2°56.018 126.4 0.1 311 -999
2012-02-08 07:40:08 51°13.637 2°56.018 126.4 0.1 321 -999
2012-02-08 07:40:13 51°13.637 2°56.018 126.4 0.1 340 -999
2012-02-08 07:40:20 51°13.636 2°56.018 126.4 0.1 291 -999
2012-02-08 07:40:24 51°13.636 2°56.019 126.4 0.1 289 -999
2012-02-08 07:40:29 51°13.636 2°56.019 126.4 -999 5 -999
2012-02-08 07:40:34 51°13.636 2°56.019 126.4 -999 56 -999
2012-02-08 07:40:38 51°13.636 2°56.019 126.4 0.1 283 -999
2012-02-08 07:40:44 51°13.636 2°56.018 126.4 0.1 212 -999
2012-02-08 07:40:48 51°13.636 2°56.018 126.4 0.2 201 -999
2012-02-08 07:40:53 51°13.636 2°56.018 126.4 0.2 212 -999
2012-02-08 07:40:58 51°13.635 2°56.019 126.4 0.1 194 -999
2012-02-08 07:41:04 51°13.636 2°56.019 126.4 -999 115 -999
2012-02-08 07:41:10 51°13.636 2°56.019 126.4 0.1 113 -999
2012-02-08 07:41:14 51°13.636 2°56.019 126.4 -999 103 -999
2012-02-08 07:41:20 51°13.636 2°56.019 126.4 -999 327 -999
2012-02-08 07:41:24 51°13.636 2°56.019 126.4 -999 314 -999
2012-02-08 07:41:28 51°13.636 2°56.019 126.4 -999 310 -999
2012-02-08 07:41:33 51°13.636 2°56.019 126.4 -999 320 -999
2012-02-08 07:41:38 51°13.636 2°56.018 126.4 -999 261 -999
2012-02-08 07:41:44 51°13.636 2°56.019 126.4 -999 256 -999
2012-02-08 07:41:49 51°13.636 2°56.019 126.4 -999 174 -999
2012-02-08 07:41:54 51°13.636 2°56.019 126.4 -999 125 -999
2012-02-08 07:41:59 51°13.636 2°56.019 126.4 -999 54 -999
2012-02-08 07:42:04 51°13.636 2°56.019 126.4 0.1 40 -999
2012-02-08 07:42:09 51°13.636 2°56.019 126.4 -999 324 -999
2012-02-08 07:42:14 51°13.636 2°56.019 126.4 -999 69 -999
2012-02-08 07:42:20 51°13.636 2°56.019 126.4 0.1 90 -999
2012-02-08 07:42:25 51°13.636 2°56.019 126.4 0.1 87 -999
2012-02-08 07:42:30 51°13.636 2°56.019 126.4 -999 37 -999
2012-02-08 07:42:35 51°13.636 2°56.019 126.4 -999 358 -999
2012-02-08 07:42:39 51°13.637 2°56.019 126.4 0.1 348 -999
2012-02-08 07:42:44 51°13.637 2°56.019 126.4 0.2 344 -999
2012-02-08 07:42:49 51°13.637 2°56.018 126.4 0.1 338 -999
2012-02-08 07:42:54 51°13.636 2°56.019 126.4 -999 29 -999
2012-02-08 07:42:59 51°13.636 2°56.019 126.4 0.1 129 -999
2012-02-08 07:43:05 51°13.636 2°56.019 126.4 0.1 95 -999
2012-02-08 07:43:09 51°13.636 2°56.019 126.4 0.1 81 -999
2012-02-08 07:43:14 51°13.636 2°56.019 126.4 0.1 88 -999
2012-02-08 07:43:20 51°13.636 2°56.019 126.4 -999 166 -999
2012-02-08 07:43:24 51°13.636 2°56.019 126.4 -999 214 -999
2012-02-08 07:43:30 51°13.636 2°56.019 126.4 0.1 299 -999
2012-02-08 07:43:35 51°13.636 2°56.018 126.4 0.1 274 -999
2012-02-08 07:43:40 51°13.636 2°56.019 126.4 0.1 95 -999
2012-02-08 07:43:44 51°13.636 2°56.019 126.4 0.1 78 -999
2012-02-08 07:43:50 51°13.636 2°56.02 126.4 0.1 158 -999
2012-02-08 07:43:55 51°13.636 2°56.019 126.4 -999 111 -999
2012-02-08 07:43:59 51°13.636 2°56.019 126.4 0.1 336 -999
2012-02-08 07:44:04 51°13.636 2°56.019 126.4 0.1 305 -999
2012-02-08 07:44:09 51°13.636 2°56.019 126.4 -999 126 -999
2012-02-08 07:44:14 51°13.636 2°56.02 126.4 -999 37 -999
2012-02-08 07:44:19 51°13.637 2°56.02 126.4 0.1 51 -999
2012-02-08 07:44:24 51°13.636 2°56.02 126.4 0.1 89 -999
2012-02-08 07:44:29 51°13.636 2°56.02 126.4 0.1 274 -999
2012-02-08 07:44:33 51°13.636 2°56.02 126.4 0.2 188 -999
2012-02-08 07:44:40 51°13.637 2°56.019 126.4 0.1 266 -999
2012-02-08 07:44:45 51°13.637 2°56.019 126.4 0.1 13 -999
2012-02-08 07:44:49 51°13.637 2°56.02 126.4 -999 286 -999
2012-02-08 07:44:54 51°13.637 2°56.019 126.4 0.1 279 -999
2012-02-08 07:44:59 51°13.637 2°56.019 126.4 -999 355 -999
2012-02-08 07:45:05 51°13.637 2°56.019 126.4 -999 23 -999
2012-02-08 07:45:10 51°13.637 2°56.02 126.4 0.1 90 -999
2012-02-08 07:45:15 51°13.636 2°56.02 126.4 0.1 108 -999
2012-02-08 07:45:19 51°13.636 2°56.019 126.4 -999 150 -999
2012-02-08 07:45:25 51°13.636 2°56.019 126.4 -999 288 -999
2012-02-08 07:45:30 51°13.636 2°56.019 126.4 -999 260 -999
2012-02-08 07:45:35 51°13.636 2°56.019 126.4 -999 307 -999
2012-02-08 07:45:39 51°13.636 2°56.019 126.4 -999 63 -999
2012-02-08 07:45:44 51°13.636 2°56.019 126.4 0.1 94 -999
2012-02-08 07:45:49 51°13.636 2°56.019 126.4 0.1 114 -999
2012-02-08 07:45:55 51°13.636 2°56.019 126.4 0.1 110 -999
2012-02-08 07:45:59 51°13.636 2°56.019 126.4 -999 338 -999
2012-02-08 07:46:04 51°13.636 2°56.019 126.4 0.1 87 -999
2012-02-08 07:46:09 51°13.636 2°56.019 126.5 0.1 121 -999
2012-02-08 07:46:14 51°13.636 2°56.019 126.5 -999 347 -999
2012-02-08 07:46:20 51°13.636 2°56.018 126.5 0.1 270 -999
2012-02-08 07:46:25 51°13.636 2°56.018 126.5 0.1 271 -999
2012-02-08 07:46:29 51°13.636 2°56.019 126.5 0.1 276 -999
2012-02-08 07:46:34 51°13.636 2°56.019 126.5 0.1 243 -999
2012-02-08 07:46:39 51°13.636 2°56.019 126.5 -999 268 -999
2012-02-08 07:46:44 51°13.636 2°56.018 126.5 0.1 111 -999
2012-02-08 07:46:49 51°13.636 2°56.018 126.5 -999 252 -999
2012-02-08 07:46:54 51°13.637 2°56.017 126.5 -999 300 -999
2012-02-08 07:47:00 51°13.637 2°56.017 126.5 -999 51 -999
2012-02-08 07:47:05 51°13.637 2°56.018 126.5 0.1 96 -999
2012-02-08 07:47:10 51°13.637 2°56.018 126.5 0.1 116 -999
2012-02-08 07:47:14 51°13.636 2°56.018 126.5 0.1 105 -999
2012-02-08 07:47:20 51°13.636 2°56.019 126.5 -999 26 -999
2012-02-08 07:47:25 51°13.637 2°56.018 126.5 -999 345 -999
2012-02-08 07:47:29 51°13.637 2°56.019 126.4 0.1 12 -999
2012-02-08 07:47:34 51°13.636 2°56.019 126.3 -999 330 -999
2012-02-08 07:47:39 51°13.637 2°56.019 126.2 -999 253 -999
2012-02-08 07:47:44 51°13.636 2°56.019 126.2 -999 88 -999
2012-02-08 07:47:49 51°13.636 2°56.019 126.2 0.1 265 -999
2012-02-08 07:47:54 51°13.637 2°56.018 126.4 0.1 291 -999
2012-02-08 07:47:59 51°13.636 2°56.019 126.7 -999 67 -999
2012-02-08 07:48:03 51°13.636 2°56.019 126.9 -999 94 -999
2012-02-08 07:48:10 51°13.636 2°56.018 126.9 -999 347 -999
2012-02-08 07:48:14 51°13.636 2°56.019 126.7 0.1 118 -999
2012-02-08 07:48:19 51°13.636 2°56.019 126.6 0.1 145 -999
2012-02-08 07:48:24 51°13.636 2°56.019 126.6 -999 129 -999
2012-02-08 07:48:29 51°13.636 2°56.019 126.7 0.1 118 -999
2012-02-08 07:48:35 51°13.636 2°56.019 126.8 0.1 165 -999
2012-02-08 07:48:39 51°13.636 2°56.019 127 0.1 165 -999
2012-02-08 07:48:44 51°13.636 2°56.018 127 0.1 319 -999
2012-02-08 07:48:49 51°13.636 2°56.018 127 -999 317 -999
2012-02-08 07:48:55 51°13.636 2°56.019 126.7 0.1 124 -999
2012-02-08 07:49:00 51°13.636 2°56.018 126.6 0.1 299 -999
2012-02-08 07:49:04 51°13.636 2°56.018 126.4 -999 177 -999
2012-02-08 07:49:09 51°13.636 2°56.019 126.4 0.2 164 -999
2012-02-08 07:49:14 51°13.636 2°56.019 126.4 0.1 137 -999
2012-02-08 07:49:19 51°13.636 2°56.019 126.7 0.1 164 -999
2012-02-08 07:49:24 51°13.635 2°56.018 127 0.1 196 -999
2012-02-08 07:49:30 51°13.636 2°56.018 127.3 0.1 266 -999
2012-02-08 07:49:34 51°13.636 2°56.018 127.9 0.1 249 -999
2012-02-08 07:49:40 51°13.636 2°56.018 128.5 0.1 198 -999
2012-02-08 07:49:44 51°13.636 2°56.018 129.1 0.1 174 -999
2012-02-08 07:49:49 51°13.636 2°56.018 129.7 0.2 147 -999
2012-02-08 07:49:53 51°13.636 2°56.018 130.2 0.2 123 6.7
2012-02-08 07:49:59 51°13.636 2°56.018 130.7 0.2 59 6.8
2012-02-08 07:50:04 51°13.636 2°56.018 130.7 0.1 99 6.8
2012-02-08 07:50:10 51°13.636 2°56.019 130.1 0.2 70 -999
2012-02-08 07:50:14 51°13.636 2°56.019 129.6 0.2 62 -999
2012-02-08 07:50:20 51°13.636 2°56.019 128.9 0.2 81 -999
2012-02-08 07:50:25 51°13.636 2°56.02 128.2 0.3 90 -999
2012-02-08 07:50:30 51°13.636 2°56.019 126.9 0.1 86 -999
2012-02-08 07:50:34 51°13.636 2°56.019 125.8 -999 139 -999
2012-02-08 07:50:40 51°13.636 2°56.019 125 0.1 149 -999
2012-02-08 07:50:45 51°13.636 2°56.019 124.5 -999 153 7
2012-02-08 07:50:50 51°13.636 2°56.019 123.9 -999 230 -999
2012-02-08 07:50:54 51°13.636 2°56.019 123.4 -999 172 -999
2012-02-08 07:51:00 51°13.636 2°56.019 122.7 0.1 122 -999
2012-02-08 07:51:05 51°13.636 2°56.019 122 0.1 151 -999
2012-02-08 07:51:10 51°13.636 2°56.019 121.2 0.1 138 -999
2012-02-08 07:51:14 51°13.636 2°56.019 120.4 0.1 208 -999
2012-02-08 07:51:20 51°13.636 2°56.018 119.3 0.1 222 -999
2012-02-08 07:51:24 51°13.636 2°56.018 118.3 0.1 251 6.7
2012-02-08 07:51:29 51°13.636 2°56.018 117.1 0.1 229 -999
2012-02-08 07:51:34 51°13.636 2°56.017 116.1 0.2 209 6.8
2012-02-08 07:51:39 51°13.635 2°56.019 114.8 0.3 174 6.8
2012-02-08 07:51:44 51°13.635 2°56.019 113.5 0.1 185 -999
2012-02-08 07:51:49 51°13.635 2°56.019 111.7 0.1 262 -999
2012-02-08 07:51:54 51°13.635 2°56.018 110.6 0.1 288 -999
2012-02-08 07:51:59 51°13.635 2°56.018 109.4 0.1 236 6.9
2012-02-08 07:52:04 51°13.635 2°56.019 108.3 -999 109 -999
2012-02-08 07:52:10 51°13.635 2°56.018 107.5 0.1 243 -999
2012-02-08 07:52:15 51°13.635 2°56.018 106.8 0.1 185 -999
2012-02-08 07:52:19 51°13.634 2°56.018 106.6 0.1 195 6.8
2012-02-08 07:52:24 51°13.634 2°56.018 106.3 0.1 254 -999
2012-02-08 07:52:30 51°13.635 2°56.016 106 0.5 288 -999
2012-02-08 07:52:34 51°13.635 2°56.015 105.7 0.8 284 -999
2012-02-08 07:52:39 51°13.635 2°56.013 105.7 1.1 284 6.8
2012-02-08 07:52:43 51°13.636 2°56.01 105.6 1.4 285 6.9
2012-02-08 07:52:49 51°13.636 2°56.006 105.8 1.8 285 -999
2012-02-08 07:52:54 51°13.637 2°56.001 106.6 2.2 286 6.9
2012-02-08 07:52:59 51°13.638 2°55.996 107 2.5 288 -999
2012-02-08 07:53:04 51°13.639 2°55.991 107.5 2.6 289 -999
2012-02-08 07:53:09 51°13.64 2°55.985 107.9 2.9 288 -999
2012-02-08 07:53:14 51°13.642 2°55.978 108 3.3 288 -999
2012-02-08 07:53:19 51°13.644 2°55.971 108.9 3.5 290 -999
2012-02-08 07:53:24 51°13.646 2°55.963 109.6 3.7 292 -999
2012-02-08 07:53:29 51°13.647 2°55.955 110.1 3.8 290 -999
2012-02-08 07:53:34 51°13.649 2°55.947 110.2 4 290 -999
2012-02-08 07:53:40 51°13.652 2°55.936 109.7 4.2 289 -999
2012-02-08 07:53:45 51°13.653 2°55.927 109.2 4.2 289 -999
2012-02-08 07:53:49 51°13.655 2°55.92 109.2 4.3 288 -999
2012-02-08 07:53:54 51°13.657 2°55.911 109.4 4.4 290 -999
2012-02-08 07:53:59 51°13.659 2°55.902 110.3 4.3 289 -999
2012-02-08 07:54:04 51°13.661 2°55.893 111.4 4.4 291 -999
2012-02-08 07:54:09 51°13.663 2°55.884 113.2 4.4 292 -999
2012-02-08 07:54:15 51°13.666 2°55.874 114.8 4.4 293 -999
2012-02-08 07:54:19 51°13.668 2°55.867 116.4 4.5 295 -999
2012-02-08 07:54:25 51°13.672 2°55.855 118.2 4.8 296 -999
2012-02-08 07:54:30 51°13.675 2°55.847 119.9 4.7 302 -999
2012-02-08 07:54:34 51°13.679 2°55.839 121.8 4.8 301 -999
2012-02-08 07:54:40 51°13.682 2°55.829 123.6 4.7 302 -999
2012-02-08 07:54:45 51°13.685 2°55.82 125.4 4.7 303 -999
2012-02-08 07:54:50 51°13.689 2°55.811 127.4 4.8 305 -999
2012-02-08 07:54:54 51°13.693 2°55.803 129.5 5.1 306 -999
2012-02-08 07:54:59 51°13.697 2°55.796 131.5 5 311 -999
2012-02-08 07:55:04 51°13.702 2°55.788 133.4 5.1 312 -999
2012-02-08 07:55:10 51°13.708 2°55.776 135.3 5.2 313 -999
2012-02-08 07:55:14 51°13.713 2°55.769 136.7 5.4 315 -999
2012-02-08 07:55:20 51°13.719 2°55.759 137.8 5.5 317 -999
2012-02-08 07:55:25 51°13.725 2°55.75 138.7 5.7 317 -999
2012-02-08 07:55:29 51°13.73 2°55.743 139.3 5.9 318 -999
2012-02-08 07:55:34 51°13.736 2°55.734 139.4 5.9 317 -999
2012-02-08 07:55:39 51°13.742 2°55.726 139.3 5.8 318 -999
2012-02-08 07:55:44 51°13.748 2°55.717 139.6 5.8 318 -999
2012-02-08 07:55:48 51°13.753 2°55.71 140.6 5.9 319 -999
2012-02-08 07:55:54 51°13.761 2°55.7 141.7 6 319 -999
2012-02-08 07:55:59 51°13.767 2°55.692 142.8 6 322 -999
2012-02-08 07:56:04 51°13.774 2°55.684 144.4 6 323 -999
2012-02-08 07:56:09 51°13.78 2°55.676 146.5 6 324 -999
2012-02-08 07:56:15 51°13.789 2°55.667 149.6 6.1 329 -999
2012-02-08 07:56:20 51°13.796 2°55.66 151.8 6.1 330 -999
2012-02-08 07:56:24 51°13.802 2°55.655 154.2 6 332 -999
2012-02-08 07:56:29 51°13.809 2°55.649 156.5 6 335 -999
2012-02-08 07:56:34 51°13.817 2°55.645 158.8 5.9 337 -999
2012-02-08 07:56:39 51°13.824 2°55.64 161.1 5.9 338 -999
2012-02-08 07:56:44 51°13.832 2°55.635 163.1 5.9 341 -999
2012-02-08 07:56:50 51°13.842 2°55.631 165.4 5.9 344 -999
2012-02-08 07:56:54 51°13.848 2°55.629 168 5.9 347 -999
2012-02-08 07:56:59 51°13.856 2°55.626 170.4 6 348 -999
2012-02-08 07:57:04 51°13.865 2°55.623 172.7 6 350 -999
2012-02-08 07:57:09 51°13.873 2°55.622 174.9 5.9 353 -999
2012-02-08 07:57:15 51°13.883 2°55.621 177.3 5.9 356 -999
2012-02-08 07:57:20 51°13.89 2°55.621 179.9 5.8 359 -999
2012-02-08 07:57:25 51°13.898 2°55.621 182.6 5.7 1 -999
2012-02-08 07:57:30 51°13.906 2°55.621 185.3 5.4 2 -999
2012-02-08 07:57:35 51°13.913 2°55.622 187.8 5.2 4 -999
2012-02-08 07:57:40 51°13.92 2°55.623 190.2 5 7 -999
2012-02-08 07:57:45 51°13.926 2°55.625 192.6 4.8 8 -999
2012-02-08 07:57:49 51°13.932 2°55.626 195.3 4.7 11 -999
2012-02-08 07:57:54 51°13.938 2°55.629 198 4.5 14 -999
2012-02-08 07:57:59 51°13.944 2°55.631 201.2 4.3 15 -999
2012-02-08 07:58:05 51°13.95 2°55.634 203.2 4.1 17 -999
2012-02-08 07:58:10 51°13.955 2°55.637 205.6 3.9 19 -999
2012-02-08 07:58:14 51°13.959 2°55.639 208 3.5 20 -999
2012-02-08 07:58:20 51°13.964 2°55.642 210.1 3.3 21 -999
2012-02-08 07:58:24 51°13.967 2°55.645 212.3 2.9 25 9.5
2012-02-08 07:58:29 51°13.97 2°55.647 214.4 2.4 27 -999
2012-02-08 07:58:34 51°13.973 2°55.649 217.1 2 26 -999
2012-02-08 07:58:39 51°13.974 2°55.651 219.8 1.5 25 -999
2012-02-08 07:58:44 51°13.976 2°55.652 223.4 0.8 18 4.8
2012-02-08 07:58:49 51°13.976 2°55.651 227.1 0.4 325 -999
2012-02-08 07:58:54 51°13.976 2°55.649 231.6 0.9 265 -999
2012-02-08 07:58:58 51°13.976 2°55.646 238.6 1.6 257 -999
2012-02-08 07:59:04 51°13.975 2°55.641 248.3 2.2 263 -999
2012-02-08 07:59:09 51°13.975 2°55.635 256.8 2.7 266 -999
2012-02-08 07:59:14 51°13.975 2°55.627 263.6 3.2 274 9.5
2012-02-08 07:59:19 51°13.976 2°55.62 271.9 3.6 281 -999
2012-02-08 07:59:24 51°13.978 2°55.612 281.8 3.9 288 -999
2012-02-08 07:59:30 51°13.981 2°55.601 290.1 4.4 294 -999
2012-02-08 07:59:35 51°13.985 2°55.593 298 4.7 303 -999
2012-02-08 07:59:39 51°13.988 2°55.585 303.3 5 306 4.7
2012-02-08 07:59:44 51°13.993 2°55.576 307.8 5.5 312 -999
2012-02-08 07:59:50 51°14 2°55.565 312.9 5.9 314 -999
2012-02-08 07:59:55 51°14.006 2°55.556 317.2 6.4 319 -999
2012-02-08 07:59:59 51°14.012 2°55.548 319.9 6.6 320 -999
2012-02-08 08:00:04 51°14.02 2°55.539 321.6 6.9 322 -999
2012-02-08 08:00:09 51°14.028 2°55.529 323.8 7.3 324 -999
2012-02-08 08:00:15 51°14.038 2°55.518 326.3 7.5 327 -999
2012-02-08 08:00:19 51°14.045 2°55.51 327.4 7.7 326 -999
2012-02-08 08:00:24 51°14.054 2°55.5 327.2 7.9 325 -999
2012-02-08 08:00:29 51°14.063 2°55.491 327.4 8.1 327 -999
2012-02-08 08:00:34 51°14.073 2°55.481 328.3 8.3 327 -999
2012-02-08 08:00:40 51°14.085 2°55.468 328.2 8.5 326 -999
2012-02-08 08:00:43 51°14.091 2°55.462 328 8.6 327 -999
2012-02-08 08:00:50 51°14.105 2°55.447 328.5 8.7 327 -999
2012-02-08 08:00:55 51°14.115 2°55.436 329.2 8.8 327 -999
2012-02-08 08:01:00 51°14.126 2°55.425 329.2 8.9 327 -999
2012-02-08 08:01:04 51°14.134 2°55.417 329 9 327 -999
2012-02-08 08:01:10 51°14.147 2°55.404 329.9 9 329 -999
2012-02-08 08:01:14 51°14.155 2°55.396 330.4 9.1 328 -999
2012-02-08 08:01:19 51°14.166 2°55.386 330.5 9.1 329 -999
2012-02-08 08:01:24 51°14.177 2°55.376 330.8 9.1 330 -999
2012-02-08 08:01:29 51°14.188 2°55.365 331.2 9.1 329 -999
2012-02-08 08:01:34 51°14.199 2°55.354 331.1 9.1 328 -999
2012-02-08 08:01:39 51°14.209 2°55.343 329.5 9.1 326 -999
2012-02-08 08:01:44 51°14.22 2°55.332 329 9.1 328 -999
2012-02-08 08:01:49 51°14.231 2°55.322 330.5 9.1 329 -999
2012-02-08 08:01:54 51°14.242 2°55.312 331.6 9.1 330 -999
2012-02-08 08:01:59 51°14.253 2°55.301 331.7 9.1 328 -999
2012-02-08 08:02:04 51°14.263 2°55.291 331.1 9.1 328 -999
2012-02-08 08:02:09 51°14.274 2°55.28 330.7 9.2 328 -999
2012-02-08 08:02:14 51°14.285 2°55.27 330.9 9.2 329 -999
2012-02-08 08:02:20 51°14.299 2°55.257 331.6 9.3 330 -999
2012-02-08 08:02:25 51°14.31 2°55.247 331.7 9.3 330 -999
2012-02-08 08:02:29 51°14.319 2°55.238 331.1 9.5 329 -999
2012-02-08 08:02:34 51°14.33 2°55.227 330.8 9.6 329 -999
2012-02-08 08:02:40 51°14.344 2°55.213 330.5 9.7 328 -999
2012-02-08 08:02:45 51°14.355 2°55.201 330.1 9.8 327 -999
2012-02-08 08:02:49 51°14.364 2°55.192 330 9.8 328 -999
2012-02-08 08:02:54 51°14.376 2°55.181 330 9.8 328 -999
2012-02-08 08:02:59 51°14.388 2°55.169 330.3 9.9 328 -999
2012-02-08 08:03:04 51°14.399 2°55.157 329.8 9.9 327 -999
2012-02-08 08:03:09 51°14.411 2°55.145 329.3 10 327 -999
2012-02-08 08:03:14 51°14.423 2°55.132 328.2 10.1 325 -999
2012-02-08 08:03:19 51°14.434 2°55.119 326.6 10.2 324 -999
2012-02-08 08:03:24 51°14.445 2°55.106 326.7 10.1 324 9
2012-02-08 08:03:30 51°14.46 2°55.09 327.5 10.3 325 -999
2012-02-08 08:03:35 51°14.471 2°55.077 328 10.4 324 -999
2012-02-08 08:03:39 51°14.481 2°55.066 327 10.5 324 -999
2012-02-08 08:03:45 51°14.494 2°55.048 325.2 10.7 321 -999
2012-02-08 08:03:50 51°14.505 2°55.033 324.2 10.7 320 -999
2012-02-08 08:03:54 51°14.514 2°55.02 324 10.6 316 9.8
2012-02-08 08:03:58 51°14.522 2°55.006 322.2 10.7 313 9.8
2012-02-08 08:04:03 51°14.532 2°54.988 320.2 10.9 311 10.4
2012-02-08 08:04:10 51°14.546 2°54.963 319.3 11 313 -999
2012-02-08 08:04:14 51°14.555 2°54.948 320.5 11.2 313 -999
2012-02-08 08:04:19 51°14.565 2°54.93 322.7 11.2 314 -999
2012-02-08 08:04:24 51°14.576 2°54.913 323.9 11.2 314 -999
2012-02-08 08:04:29 51°14.586 2°54.894 323.8 11.3 311 -999
2012-02-08 08:04:34 51°14.596 2°54.875 320.7 11.3 308 -999
2012-02-08 08:04:39 51°14.605 2°54.854 316.2 11.4 305 -999
2012-02-08 08:04:44 51°14.613 2°54.832 312.2 11.5 302 -999
2012-02-08 08:04:49 51°14.62 2°54.809 308.6 11.7 296 10.2
2012-02-08 08:04:54 51°14.627 2°54.785 305.7 11.4 292 -999
2012-02-08 08:05:00 51°14.632 2°54.756 301.3 11.5 287 10
2012-02-08 08:05:04 51°14.635 2°54.737 296.4 11.5 283 -999
2012-02-08 08:05:09 51°14.637 2°54.711 291.9 11.6 278 10.3
2012-02-08 08:05:14 51°14.638 2°54.685 288 11.7 274 9.4
2012-02-08 08:05:19 51°14.638 2°54.659 282.2 11.9 269 9.7
2012-02-08 08:05:24 51°14.637 2°54.633 277 11.8 265 9.3
2012-02-08 08:05:28 51°14.634 2°54.612 271.9 11.9 260 9.3
2012-02-08 08:05:33 51°14.63 2°54.587 266.9 12 256 9.1
2012-02-08 08:05:39 51°14.623 2°54.556 261.5 12.1 252 9.4
2012-02-08 08:05:43 51°14.619 2°54.536 256.9 12 248 9
2012-02-08 08:05:49 51°14.609 2°54.507 251.9 12.3 243 9
2012-02-08 08:05:53 51°14.602 2°54.488 245.9 12.5 242 9.3
2012-02-08 08:05:58 51°14.593 2°54.464 243.2 12.5 241 9.2
2012-02-08 08:06:03 51°14.586 2°54.44 242 12.4 239 9
2012-02-08 08:06:09 51°14.574 2°54.411 241.4 12.8 238 9.1
2012-02-08 08:06:13 51°14.566 2°54.392 238.3 12.7 238 9.2
2012-02-08 08:06:18 51°14.557 2°54.368 238.1 12.8 237 9.1
2012-02-08 08:06:22 51°14.549 2°54.349 238.1 12.8 239 8.7
2012-02-08 08:06:29 51°14.536 2°54.315 238.2 12.8 238 8.8
2012-02-08 08:06:34 51°14.527 2°54.291 238.5 12.8 239 8.7
2012-02-08 08:06:38 51°14.52 2°54.271 239.3 12.8 238 8.4
2012-02-08 08:06:43 51°14.51 2°54.247 238 12.9 238 8.8
2012-02-08 08:06:48 51°14.499 2°54.224 237.4 13.1 234 8.8
2012-02-08 08:06:53 51°14.49 2°54.199 236.2 12.8 239 8.4
2012-02-08 08:06:58 51°14.48 2°54.175 238 13.2 236 8.6
2012-02-08 08:07:02 51°14.472 2°54.154 237.1 13.3 239 8.2
2012-02-08 08:07:07 51°14.462 2°54.131 237.7 13.2 237 8.9
2012-02-08 08:07:12 51°14.452 2°54.106 236.9 13.2 236 8.6
2012-02-08 08:07:17 51°14.442 2°54.081 236.3 13.5 239 8.6
2012-02-08 08:07:22 51°14.432 2°54.056 237.6 13.5 238 8.6
2012-02-08 08:07:26 51°14.424 2°54.035 238.9 13.6 236 8.3
2012-02-08 08:07:31 51°14.414 2°54.009 238 13.7 240 8.5
2012-02-08 08:07:37 51°14.403 2°53.979 241 13.4 236 8.6
2012-02-08 08:07:41 51°14.395 2°53.958 239.5 13.6 241 8.5
2012-02-08 08:07:46 51°14.385 2°53.933 240.4 13.6 237 8.4
2012-02-08 08:07:50 51°14.377 2°53.912 239.6 13.6 241 8.6
2012-02-08 08:07:56 51°14.366 2°53.881 241 13.5 239 8.3
2012-02-08 08:08:01 51°14.356 2°53.856 240 13.6 237 8.3
2012-02-08 08:08:06 51°14.345 2°53.831 237.9 13.7 236 8.6
2012-02-08 08:08:10 51°14.337 2°53.811 237.2 13.8 237 8.4
2012-02-08 08:08:15 51°14.326 2°53.786 237.2 13.7 236 8.7
2012-02-08 08:08:22 51°14.311 2°53.751 238.6 13.6 234 6
2012-02-08 08:08:27 51°14.301 2°53.725 236.1 13.8 239 8.3
2012-02-08 08:08:31 51°14.292 2°53.706 237.5 13.5 235 8.4
2012-02-08 08:08:36 51°14.281 2°53.681 236.5 13.6 234 8.4
2012-02-08 08:08:41 51°14.27 2°53.656 235.7 13.8 235 8.3
2012-02-08 08:08:46 51°14.26 2°53.632 236.9 13.4 236 8.4
2012-02-08 08:08:51 51°14.248 2°53.608 236.1 13.9 231 8.5
2012-02-08 08:08:55 51°14.24 2°53.587 235.5 13.6 242 8.1
2012-02-08 08:09:01 51°14.227 2°53.559 239 13.5 231 8.2
2012-02-08 08:09:06 51°14.217 2°53.533 234.8 13.8 237 8.6
2012-02-08 08:09:11 51°14.205 2°53.509 236.9 13.5 233 8.2
2012-02-08 08:09:16 51°14.194 2°53.485 234.7 13.7 235 8.4
2012-02-08 08:09:21 51°14.184 2°53.46 236 13.6 235 8.5
2012-02-08 08:09:26 51°14.172 2°53.436 235.6 13.8 233 8.5
2012-02-08 08:09:31 51°14.163 2°53.409 235.1 13.7 241 8.7
2012-02-08 08:09:36 51°14.151 2°53.385 239.4 13.6 234 8.4
2012-02-08 08:09:40 51°14.144 2°53.364 237.3 13.7 238 8.5
2012-02-08 08:09:46 51°14.131 2°53.336 237.3 13.4 236 8.4
2012-02-08 08:09:50 51°14.122 2°53.316 236 13.4 234 8.5
2012-02-08 08:09:55 51°14.111 2°53.291 235 13.7 236 8.4
2012-02-08 08:10:01 51°14.098 2°53.261 236.1 13.6 235 8.6
2012-02-08 08:10:06 51°14.088 2°53.237 236.7 13.3 236 8.5
2012-02-08 08:10:11 51°14.076 2°53.213 235.7 13.6 232 8.9
2012-02-08 08:10:16 51°14.066 2°53.188 236.5 13.4 235 8.4
2012-02-08 08:10:21 51°14.055 2°53.163 236.7 13.4 234 8.7
2012-02-08 08:10:26 51°14.046 2°53.138 237.8 13.4 239 8.3
2012-02-08 08:10:31 51°14.035 2°53.113 238.9 13.7 236 8.6
2012-02-08 08:10:36 51°14.026 2°53.086 238.9 13.7 239 8.6
2012-02-08 08:10:41 51°14.016 2°53.062 240.6 13.5 238 8.6
2012-02-08 08:10:45 51°14.009 2°53.04 240.8 13.5 242 8.4
2012-02-08 08:10:51 51°13.997 2°53.009 242.1 13.6 239 9.1
2012-02-08 08:10:56 51°13.989 2°52.983 244.1 13.5 242 8.7
2012-02-08 08:11:01 51°13.98 2°52.956 243.1 13.7 241 9
2012-02-08 08:11:05 51°13.973 2°52.935 243.1 13.5 238 9
2012-02-08 08:11:10 51°13.964 2°52.909 242.6 13.5 246 8.2
2012-02-08 08:11:16 51°13.95 2°52.879 241.5 14 234 9.2
2012-02-08 08:11:21 51°13.943 2°52.852 240.8 13.6 245 8.8
2012-02-08 08:11:25 51°13.933 2°52.833 241.6 13.7 234 9.1
2012-02-08 08:11:31 51°13.923 2°52.8 239.1 13.8 242 8.9
2012-02-08 08:11:36 51°13.913 2°52.776 241.1 13.5 237 8.7
2012-02-08 08:11:41 51°13.903 2°52.75 239.8 13.6 238 8.7
2012-02-08 08:11:45 51°13.894 2°52.73 238.6 13.8 238 9
2012-02-08 08:11:51 51°13.883 2°52.699 239.5 13.6 238 8.9
2012-02-08 08:11:56 51°13.872 2°52.675 238.2 13.5 235 9
2012-02-08 08:12:01 51°13.862 2°52.649 236.8 13.6 237 8.9
2012-02-08 08:12:05 51°13.853 2°52.629 238 13.6 236 8.9
2012-02-08 08:12:11 51°13.841 2°52.6 237.4 13.5 235 8.8
2012-02-08 08:12:16 51°13.83 2°52.575 236.1 13.5 236 9
2012-02-08 08:12:21 51°13.82 2°52.549 236 13.6 237 8.9
2012-02-08 08:12:25 51°13.811 2°52.529 237.1 13.8 237 8.9
2012-02-08 08:12:30 51°13.801 2°52.504 237 13.7 237 9.1
2012-02-08 08:12:36 51°13.788 2°52.475 237.8 13.5 234 9.1
2012-02-08 08:12:41 51°13.778 2°52.449 235.9 13.7 238 8.7
2012-02-08 08:12:45 51°13.77 2°52.429 237.9 13.5 238 9.1
2012-02-08 08:12:50 51°13.76 2°52.404 239.4 13.5 236 9.1
2012-02-08 08:12:55 51°13.75 2°52.378 238.4 13.7 240 9.1
2012-02-08 08:13:01 51°13.739 2°52.347 239.8 13.4 239 9.2
2012-02-08 08:13:05 51°13.732 2°52.326 241.4 13.6 240 9.3
2012-02-08 08:13:11 51°13.722 2°52.294 242.8 13.5 244 9
2012-02-08 08:13:16 51°13.713 2°52.268 244.6 13.6 242 9.3
2012-02-08 08:13:21 51°13.704 2°52.241 244.7 13.5 243 9.6
2012-02-08 08:13:25 51°13.698 2°52.22 245.9 13.3 244 9.1
2012-02-08 08:13:31 51°13.687 2°52.187 245.9 13.6 243 9.2
2012-02-08 08:13:36 51°13.679 2°52.16 245.9 13.6 244 9
2012-02-08 08:13:41 51°13.67 2°52.134 245.5 13.7 242 9
2012-02-08 08:13:45 51°13.663 2°52.112 244.6 13.7 243 9.3
2012-02-08 08:13:51 51°13.652 2°52.08 245.4 13.7 241 9.3
2012-02-08 08:13:56 51°13.642 2°52.055 242.8 13.7 238 9.4
2012-02-08 08:14:01 51°13.633 2°52.029 241.8 13.6 240 9.5
2012-02-08 08:14:05 51°13.625 2°52.008 241.5 13.6 239 9.2
2012-02-08 08:14:11 51°13.614 2°51.976 242.1 13.5 243 9.7
2012-02-08 08:14:16 51°13.604 2°51.951 243.2 13.6 238 9.6
2012-02-08 08:14:21 51°13.596 2°51.924 241.6 13.7 242 9.7
2012-02-08 08:14:25 51°13.588 2°51.903 243.1 13.6 241 9.3
2012-02-08 08:14:31 51°13.575 2°51.872 240.9 13.8 239 9.8
2012-02-08 08:14:36 51°13.565 2°51.848 240.3 13.4 235 9.4
2012-02-08 08:14:41 51°13.554 2°51.823 237 13.7 234 9.8
2012-02-08 08:14:45 51°13.546 2°51.802 237.9 13.7 240 9.6
2012-02-08 08:14:51 51°13.532 2°51.774 239.5 13.5 231 9.8
2012-02-08 08:14:56 51°13.522 2°51.749 235.4 13.7 236 9.4
2012-02-08 08:15:01 51°13.511 2°51.724 235.8 13.7 235 9.9
2012-02-08 08:15:05 51°13.503 2°51.704 238.2 13.4 236 9.3
2012-02-08 08:15:10 51°13.491 2°51.68 237 13.7 235 9.4
2012-02-08 08:15:16 51°13.48 2°51.649 237.4 13.6 238 9.3
2012-02-08 08:15:21 51°13.468 2°51.625 238.4 13.8 233 9.2
2012-02-08 08:15:26 51°13.458 2°51.6 235.4 13.8 238 9.5
2012-02-08 08:15:31 51°13.446 2°51.576 237.9 13.7 233 9.9
2012-02-08 08:15:36 51°13.437 2°51.55 236.7 13.7 238 9.4
2012-02-08 08:15:41 51°13.425 2°51.526 236.1 13.9 233 10
2012-02-08 08:15:45 51°13.417 2°51.504 237.4 13.8 240 9.6
2012-02-08 08:15:51 51°13.404 2°51.475 238.2 13.5 235 9.5
2012-02-08 08:15:56 51°13.395 2°51.449 237.7 13.6 240 9.6
2012-02-08 08:16:01 51°13.384 2°51.423 238.9 13.8 238 9.8
2012-02-08 08:16:05 51°13.377 2°51.402 241.3 13.6 239 9.8
2012-02-08 08:16:11 51°13.365 2°51.371 239.9 13.6 240 9.9
2012-02-08 08:16:16 51°13.355 2°51.346 240.3 13.6 238 9.9
2012-02-08 08:16:21 51°13.346 2°51.319 240.5 13.8 241 10
2012-02-08 08:16:25 51°13.338 2°51.298 241.4 13.8 238 9.7
2012-02-08 08:16:30 51°13.328 2°51.272 240.2 13.8 238 10
2012-02-08 08:16:36 51°13.316 2°51.242 239.2 13.7 238 9.8
2012-02-08 08:16:41 51°13.305 2°51.216 238.2 14 236 10
2012-02-08 08:16:45 51°13.297 2°51.195 237.3 13.9 237 10
2012-02-08 08:16:51 51°13.283 2°51.166 235.6 13.9 234 9.9
2012-02-08 08:16:56 51°13.272 2°51.14 234.5 14 236 9.6
2012-02-08 08:17:01 51°13.261 2°51.115 235.5 14.1 235 9.9
2012-02-08 08:17:05 51°13.252 2°51.094 235.9 13.9 235 10.2
2012-02-08 08:17:11 51°13.238 2°51.065 235.2 13.8 234 9.6
2012-02-08 08:17:16 51°13.226 2°51.039 234.2 14.4 235 9.9
2012-02-08 08:17:21 51°13.217 2°51.012 236.9 14 240 10
2012-02-08 08:17:25 51°13.208 2°50.992 239.7 13.8 232 9.5
2012-02-08 08:17:30 51°13.196 2°50.967 234.7 14.4 237 9.7
2012-02-08 08:17:36 51°13.183 2°50.935 237.3 14.1 237 9.8
2012-02-08 08:17:41 51°13.171 2°50.91 236.4 14.1 232 9.4
2012-02-08 08:17:46 51°13.16 2°50.884 233.6 14.3 236 9.9
2012-02-08 08:17:51 51°13.15 2°50.858 236.7 13.9 237 9.2
2012-02-08 08:17:56 51°13.137 2°50.834 235.2 14.3 232 9.9
2012-02-08 08:18:01 51°13.127 2°50.806 234.5 14.3 239 9.6
2012-02-08 08:18:05 51°13.118 2°50.787 237.9 13.9 235 9.9
2012-02-08 08:18:11 51°13.105 2°50.755 236.5 14.2 236 9.8
2012-02-08 08:18:16 51°13.095 2°50.727 237.4 14.4 240 9.6
2012-02-08 08:18:21 51°13.085 2°50.701 240.1 14.1 239 9.9
2012-02-08 08:18:25 51°13.076 2°50.68 240.8 14.2 235 9.9
2012-02-08 08:18:31 51°13.065 2°50.647 239 14.2 242 9.5
2012-02-08 08:18:36 51°13.053 2°50.621 240.6 14.5 236 10
2012-02-08 08:18:41 51°13.045 2°50.592 240.4 14.2 245 9.7
2012-02-08 08:18:45 51°13.036 2°50.572 242.7 14.3 236 10
2012-02-08 08:18:50 51°13.027 2°50.544 240.4 14.1 243 9.7
2012-02-08 08:18:56 51°13.013 2°50.513 241.4 14.2 235 9.9
2012-02-08 08:19:01 51°13.004 2°50.486 238.7 14.3 242 9.9
2012-02-08 08:19:05 51°12.996 2°50.465 240.6 14 237 9.8
2012-02-08 08:19:11 51°12.983 2°50.433 238.8 14.1 239 9.8
2012-02-08 08:19:16 51°12.972 2°50.409 238.5 13.8 234 10.1
2012-02-08 08:19:21 51°12.961 2°50.383 236.1 14 236 9.9
2012-02-08 08:19:25 51°12.953 2°50.363 236.1 13.9 238 9.8
2012-02-08 08:19:31 51°12.939 2°50.332 237.4 14.2 234 9.9
2012-02-08 08:19:36 51°12.929 2°50.306 235.9 14.2 238 9.5
2012-02-08 08:19:41 51°12.918 2°50.28 236.7 13.9 236 10
2012-02-08 08:19:45 51°12.909 2°50.26 236.7 13.9 235 10.1
2012-02-08 08:19:50 51°12.898 2°50.234 236.3 14.1 237 10.1
2012-02-08 08:19:56 51°12.885 2°50.203 237.6 14.2 237 10.1
2012-02-08 08:20:01 51°12.875 2°50.176 238.8 14.2 239 10
2012-02-08 08:20:05 51°12.868 2°50.155 240.2 13.8 241 9.6
2012-02-08 08:20:11 51°12.855 2°50.123 239.9 14.2 236 10
2012-02-08 08:20:16 51°12.846 2°50.095 239.3 14.2 242 9.8
2012-02-08 08:20:21 51°12.834 2°50.07 239.8 13.9 236 9.7
2012-02-08 08:20:25 51°12.826 2°50.05 237.1 13.8 236 9.8
2012-02-08 08:20:31 51°12.813 2°50.019 235.7 14.3 235 10.1
2012-02-08 08:20:36 51°12.802 2°49.993 236.6 14.2 236 10.2
2012-02-08 08:20:41 51°12.791 2°49.968 236.5 14 233 9.7
2012-02-08 08:20:45 51°12.781 2°49.948 233.9 14.2 234 9.8
2012-02-08 08:20:51 51°12.769 2°49.916 236.9 14 237 9.7
2012-02-08 08:20:56 51°12.758 2°49.891 236.7 14 235 9.9
2012-02-08 08:21:01 51°12.747 2°49.865 235.6 14 235 9.9
2012-02-08 08:21:05 51°12.738 2°49.845 235.5 14.2 236 10.2
2012-02-08 08:21:10 51°12.728 2°49.818 238 14 236 10
2012-02-08 08:21:16 51°12.716 2°49.786 238.2 14 240 9.7
2012-02-08 08:21:21 51°12.704 2°49.76 239 14.3 236 9.8
2012-02-08 08:21:25 51°12.697 2°49.738 238.9 14.1 241 10
2012-02-08 08:21:30 51°12.686 2°49.712 239.6 14.1 235 9.8
2012-02-08 08:21:35 51°12.675 2°49.686 238 14.1 240 10.1
2012-02-08 08:21:41 51°12.663 2°49.655 239.9 13.9 236 10
2012-02-08 08:21:45 51°12.654 2°49.634 236.8 14.1 237 9.9
2012-02-08 08:21:51 51°12.643 2°49.602 237.8 13.9 239 9.4
2012-02-08 08:21:56 51°12.632 2°49.576 238.2 14.1 237 10
2012-02-08 08:22:01 51°12.622 2°49.55 238.6 13.8 237 9.9
2012-02-08 08:22:05 51°12.613 2°49.53 238.1 14 235 9.8
2012-02-08 08:22:11 51°12.6 2°49.498 236.6 14.2 240 9.4
2012-02-08 08:22:16 51°12.589 2°49.473 237.5 14.2 235 10.2
2012-02-08 08:22:21 51°12.58 2°49.446 238 13.8 241 9.9
2012-02-08 08:22:25 51°12.57 2°49.426 238.8 13.8 236 9.7
2012-02-08 08:22:31 51°12.559 2°49.394 238.3 14.2 239 10.1
2012-02-08 08:22:36 51°12.549 2°49.368 239.7 13.9 239 9.9
2012-02-08 08:22:41 51°12.537 2°49.343 238.2 14.1 233 10
2012-02-08 08:22:45 51°12.53 2°49.321 237.7 14 240 10.1
2012-02-08 08:22:51 51°12.518 2°49.29 241.6 13.7 235 9.8
2012-02-08 08:22:56 51°12.509 2°49.263 238.2 13.7 242 9.7
2012-02-08 08:23:01 51°12.498 2°49.238 240.7 13.7 238 9.6
2012-02-08 08:23:05 51°12.492 2°49.216 241 13.8 242 9.6
2012-02-08 08:23:10 51°12.483 2°49.188 243.2 13.8 243 9.9
2012-02-08 08:23:16 51°12.472 2°49.158 244.4 13.3 242 9.8
2012-02-08 08:23:21 51°12.464 2°49.131 243.9 13.2 243 9.7
2012-02-08 08:23:25 51°12.456 2°49.109 244.2 13.7 241 10.1
2012-02-08 08:23:31 51°12.447 2°49.077 245.2 13.6 246 9.5
2012-02-08 08:23:36 51°12.436 2°49.051 244 13.7 238 10.4
2012-02-08 08:23:41 51°12.43 2°49.024 244.7 13.4 248 9.6
2012-02-08 08:23:45 51°12.421 2°49.005 243.3 13.5 236 10
2012-02-08 08:23:51 51°12.412 2°48.972 241.7 13.4 244 9.9
2012-02-08 08:23:56 51°12.401 2°48.947 242.5 13.6 237 9.9
2012-02-08 08:24:01 51°12.394 2°48.92 241.6 13.6 246 9.7
2012-02-08 08:24:05 51°12.386 2°48.9 243.7 13.6 238 10
2012-02-08 08:24:10 51°12.377 2°48.873 242.2 13.8 243 9.9
2012-02-08 08:24:16 51°12.365 2°48.842 241.6 13.8 239 10
2012-02-08 08:24:21 51°12.356 2°48.815 240.8 13.8 242 9.8
2012-02-08 08:24:26 51°12.346 2°48.788 241.8 13.8 242 9.7
2012-02-08 08:24:31 51°12.337 2°48.763 242.5 13.7 240 9.9
2012-02-08 08:24:36 51°12.328 2°48.735 241.7 13.6 242 10.2
2012-02-08 08:24:41 51°12.319 2°48.708 244 13.9 241 9.8
2012-02-08 08:24:45 51°12.311 2°48.687 242.5 14.2 240 10.3
2012-02-08 08:24:51 51°12.301 2°48.654 243.8 13.7 242 9.6
2012-02-08 08:24:56 51°12.29 2°48.629 241.5 14 238 10.2
2012-02-08 08:25:01 51°12.281 2°48.601 241 14.1 241 10
2012-02-08 08:25:05 51°12.273 2°48.58 242.2 13.9 241 9.7
2012-02-08 08:25:11 51°12.261 2°48.548 241.9 13.9 240 10
2012-02-08 08:25:16 51°12.252 2°48.521 241.8 14 242 10.1
2012-02-08 08:25:21 51°12.243 2°48.493 243 14 241 10.1
2012-02-08 08:25:25 51°12.236 2°48.471 243.6 13.8 243 9.6
2012-02-08 08:25:30 51°12.226 2°48.445 242.8 13.9 239 9.9
2012-02-08 08:25:36 51°12.215 2°48.412 241.4 14.1 242 9.9
2012-02-08 08:25:41 51°12.206 2°48.386 242.8 13.8 242 10.1
2012-02-08 08:25:45 51°12.199 2°48.364 243.7 13.9 242 10
2012-02-08 08:25:51 51°12.188 2°48.331 242.7 14.1 243 10
2012-02-08 08:25:56 51°12.178 2°48.305 244 13.8 240 10.3
2012-02-08 08:26:01 51°12.169 2°48.279 242.9 13.8 240 9.6
2012-02-08 08:26:05 51°12.16 2°48.258 240.4 13.9 238 10.3
2012-02-08 08:26:11 51°12.149 2°48.227 241.4 13.7 236 10.1
2012-02-08 08:26:16 51°12.139 2°48.2 238.2 14 239 10
2012-02-08 08:26:21 51°12.129 2°48.174 239 14 240 10
2012-02-08 08:26:25 51°12.121 2°48.153 240.6 13.7 238 10
2012-02-08 08:26:30 51°12.11 2°48.128 237.7 14 236 9.8
2012-02-08 08:26:36 51°12.098 2°48.097 237.6 14.1 238 10.2
2012-02-08 08:26:41 51°12.087 2°48.072 238.1 13.7 235 9.9
2012-02-08 08:26:45 51°12.079 2°48.051 236.3 13.8 238 9.9
2012-02-08 08:26:51 51°12.065 2°48.02 237.8 14.2 236 10.1
2012-02-08 08:26:56 51°12.057 2°47.993 240.3 13.7 242 10
2012-02-08 08:27:01 51°12.046 2°47.968 241.4 13.7 236 9.8
2012-02-08 08:27:05 51°12.038 2°47.947 237.5 13.9 239 9.8
2012-02-08 08:27:11 51°12.027 2°47.915 239.4 13.9 240 9.8
2012-02-08 08:27:16 51°12.017 2°47.889 241.2 13.7 241 9.9
2012-02-08 08:27:21 51°12.007 2°47.863 240.7 13.9 239 9.9
2012-02-08 08:27:25 51°12 2°47.84 240.7 14.1 243 9.7
2012-02-08 08:27:31 51°11.989 2°47.81 241.9 13.6 243 9.7
2012-02-08 08:27:36 51°11.98 2°47.784 242.6 13.5 239 9.5
2012-02-08 08:27:41 51°11.971 2°47.757 240.2 13.8 242 10
2012-02-08 08:27:45 51°11.964 2°47.735 242.5 13.8 241 9.6
2012-02-08 08:27:51 51°11.952 2°47.704 240.3 13.8 241 10.1
2012-02-08 08:27:56 51°11.942 2°47.679 240.8 13.4 237 9.9
2012-02-08 08:28:01 51°11.932 2°47.652 238.4 13.8 241 9.7
2012-02-08 08:28:05 51°11.925 2°47.63 240.1 13.8 242 9.6
2012-02-08 08:28:10 51°11.915 2°47.604 241.1 13.9 239 9.6
2012-02-08 08:28:16 51°11.904 2°47.572 239.5 13.8 242 9.9
2012-02-08 08:28:21 51°11.895 2°47.546 241.1 13.5 239 9.5
2012-02-08 08:28:25 51°11.886 2°47.526 238.9 13.8 241 9.8
2012-02-08 08:28:31 51°11.877 2°47.493 240.9 13.8 244 9.7
2012-02-08 08:28:36 51°11.868 2°47.466 244.6 13.5 244 9.7
2012-02-08 08:28:41 51°11.861 2°47.439 245.6 13.4 247 9.8
2012-02-08 08:28:45 51°11.855 2°47.417 247.6 13.7 246 10
2012-02-08 08:28:51 51°11.847 2°47.383 248.7 13.5 250 9.9
2012-02-08 08:28:56 51°11.841 2°47.355 251.1 13.5 248 9.6
2012-02-08 08:29:01 51°11.834 2°47.328 250.4 13.7 248 9.8
2012-02-08 08:29:05 51°11.83 2°47.305 252.1 13.3 253 9.7
2012-02-08 08:29:11 51°11.821 2°47.272 252.3 13.4 248 9.8
2012-02-08 08:29:16 51°11.815 2°47.243 251.4 13.6 251 9.7
2012-02-08 08:29:21 51°11.809 2°47.215 251.6 13.5 251 9.7
2012-02-08 08:29:25 51°11.803 2°47.193 251.8 13.5 249 9.6
2012-02-08 08:29:31 51°11.796 2°47.16 251.7 13.4 251 9.9
2012-02-08 08:29:36 51°11.789 2°47.133 250.3 13.3 248 9.9
2012-02-08 08:29:41 51°11.782 2°47.105 250.5 13.5 249 10.1
2012-02-08 08:29:45 51°11.776 2°47.083 249.8 13.5 248 9.9
2012-02-08 08:29:51 51°11.768 2°47.05 248.7 13.5 248 9.8
2012-02-08 08:29:56 51°11.76 2°47.023 247.5 13.5 246 10
2012-02-08 08:30:01 51°11.753 2°46.995 248.2 13.6 249 9.7
2012-02-08 08:30:05 51°11.745 2°46.974 246.7 13.7 243 10.1
2012-02-08 08:30:11 51°11.738 2°46.94 246.6 13.6 250 9.8
2012-02-08 08:30:16 51°11.729 2°46.913 249 13.6 246 10.2
2012-02-08 08:30:21 51°11.725 2°46.885 250.2 13.4 253 10
2012-02-08 08:30:25 51°11.721 2°46.862 253.9 13.7 252 9.9
2012-02-08 08:30:31 51°11.715 2°46.827 255.5 13.5 257 9.8
2012-02-08 08:30:36 51°11.709 2°46.799 257.4 13.6 252 10
2012-02-08 08:30:41 51°11.705 2°46.769 256.3 13.8 257 10.1
2012-02-08 08:30:45 51°11.702 2°46.745 259.8 13.7 257 10
2012-02-08 08:30:50 51°11.697 2°46.716 260.7 13.6 260 10.4
2012-02-08 08:30:55 51°11.695 2°46.686 264 13.6 259 10.4
2012-02-08 08:31:01 51°11.69 2°46.651 263.2 13.7 260 10.2
2012-02-08 08:31:05 51°11.688 2°46.626 263.4 13.9 261 10.1
2012-02-08 08:31:11 51°11.684 2°46.59 265.1 13.8 263 10.6
2012-02-08 08:31:16 51°11.682 2°46.559 267.5 13.9 261 10.2
2012-02-08 08:31:21 51°11.679 2°46.529 266.3 13.9 264 10.6
2012-02-08 08:31:26 51°11.677 2°46.498 268.9 13.9 264 10.6
2012-02-08 08:31:31 51°11.674 2°46.468 267.1 13.9 262 10.9
2012-02-08 08:31:36 51°11.672 2°46.437 267.9 13.9 261 10.8
2012-02-08 08:31:41 51°11.669 2°46.407 267.4 13.9 263 10.9
2012-02-08 08:31:45 51°11.666 2°46.382 266.2 14 260 11.2
2012-02-08 08:31:51 51°11.664 2°46.345 266.5 14.1 264 11.4
2012-02-08 08:31:56 51°11.661 2°46.314 267.4 14.2 262 11.2
2012-02-08 08:32:01 51°11.659 2°46.284 268.4 13.9 264 10.5
2012-02-08 08:32:05 51°11.656 2°46.26 267 14.1 260 11.7
2012-02-08 08:32:10 51°11.655 2°46.228 268.3 14.1 265 11
2012-02-08 08:32:16 51°11.651 2°46.191 268.4 14.3 262 11.6
2012-02-08 08:32:21 51°11.65 2°46.16 269.1 14.1 263 11.4
2012-02-08 08:32:25 51°11.647 2°46.135 267.6 14.1 263 11.5
2012-02-08 08:32:30 51°11.645 2°46.104 267.8 14.2 264 11.4
2012-02-08 08:32:36 51°11.643 2°46.067 268.3 14.1 264 11.3
2012-02-08 08:32:41 51°11.64 2°46.037 268.6 14 263 11.1
2012-02-08 08:32:45 51°11.639 2°46.012 268.2 13.8 264 11.5
2012-02-08 08:32:51 51°11.636 2°45.975 267.8 14 261 11.8
2012-02-08 08:32:56 51°11.635 2°45.944 267.8 14 266 11.7
2012-02-08 08:33:01 51°11.633 2°45.913 269.6 13.9 266 11.2
2012-02-08 08:33:05 51°11.631 2°45.889 268.8 14 264 12
2012-02-08 08:33:11 51°11.629 2°45.852 268.7 13.9 266 11.8
2012-02-08 08:33:16 51°11.627 2°45.821 269.3 14.1 264 11.6
2012-02-08 08:33:21 51°11.626 2°45.791 268.6 13.9 266 11.8
2012-02-08 08:33:26 51°11.624 2°45.76 269.4 13.8 264 11.8
2012-02-08 08:33:30 51°11.623 2°45.736 269.1 13.9 265 11.9
2012-02-08 08:33:36 51°11.621 2°45.699 269.1 13.9 266 12
2012-02-08 08:33:41 51°11.619 2°45.668 269.1 13.9 263 12.1
2012-02-08 08:33:46 51°11.617 2°45.638 268.3 13.9 265 11.9
2012-02-08 08:33:51 51°11.615 2°45.608 268.6 13.8 263 11.7
2012-02-08 08:33:56 51°11.612 2°45.578 268.1 13.9 263 11.8
2012-02-08 08:34:01 51°11.61 2°45.547 266.5 13.9 262 11.8
2012-02-08 08:34:05 51°11.607 2°45.524 265 13.8 259 11.8
2012-02-08 08:34:11 51°11.603 2°45.488 263.6 13.7 259 12.3
2012-02-08 08:34:16 51°11.599 2°45.457 262.1 14 258 12.2
2012-02-08 08:34:21 51°11.595 2°45.427 261.7 13.8 257 12.1
2012-02-08 08:34:25 51°11.592 2°45.403 261.3 13.8 259 11.2
2012-02-08 08:34:31 51°11.586 2°45.368 260.2 14 258 11.8
2012-02-08 08:34:36 51°11.582 2°45.338 260.2 13.9 258 11.8
2012-02-08 08:34:41 51°11.578 2°45.308 260.8 14 257 12
2012-02-08 08:34:45 51°11.576 2°45.283 261.4 13.8 261 11.7
2012-02-08 08:34:50 51°11.57 2°45.254 260.7 13.9 256 11.9
2012-02-08 08:34:56 51°11.568 2°45.217 262.6 13.8 261 12.2
2012-02-08 08:35:01 51°11.564 2°45.188 262.9 13.9 259 12.2
2012-02-08 08:35:05 51°11.562 2°45.164 264.3 13.7 263 12
2012-02-08 08:35:11 51°11.559 2°45.128 265.3 13.7 262 12.1
2012-02-08 08:35:16 51°11.556 2°45.098 266.5 13.7 263 12.3
2012-02-08 08:35:21 51°11.554 2°45.069 267.1 13.5 264 11.7
2012-02-08 08:35:25 51°11.553 2°45.044 267.1 13.6 263 12.1
2012-02-08 08:35:31 51°11.55 2°45.009 268.6 13.5 266 12.2
2012-02-08 08:35:36 51°11.548 2°44.98 268.7 13.3 262 11.7
2012-02-08 08:35:41 51°11.548 2°44.95 267.8 13.3 269 11.7
2012-02-08 08:35:45 51°11.545 2°44.926 268.2 13.6 259 12.1
2012-02-08 08:35:50 51°11.542 2°44.897 266.5 13.5 265 12.3
2012-02-08 08:35:56 51°11.539 2°44.862 266.6 13.6 260 12.2
2012-02-08 08:36:01 51°11.538 2°44.833 265.7 13.4 266 12.3
2012-02-08 08:36:05 51°11.535 2°44.81 266.9 13.3 259 12.6
2012-02-08 08:36:11 51°11.532 2°44.775 265.9 13.2 263 12.2
2012-02-08 08:36:16 51°11.529 2°44.745 264.9 13.7 261 12.7
2012-02-08 08:36:21 51°11.527 2°44.716 266.5 13.3 263 12.2
2012-02-08 08:36:25 51°11.525 2°44.693 266.7 13.1 261 12
2012-02-08 08:36:31 51°11.522 2°44.658 265.8 13.5 262 12.5
2012-02-08 08:36:36 51°11.521 2°44.628 266.4 13.4 264 12
2012-02-08 08:36:41 51°11.518 2°44.598 267 13.6 263 12
2012-02-08 08:36:45 51°11.518 2°44.575 267.9 13.4 267 12.1
2012-02-08 08:36:51 51°11.514 2°44.539 268.7 13.6 261 12.2
2012-02-08 08:36:56 51°11.513 2°44.51 267.8 13.3 266 11.9
2012-02-08 08:37:01 51°11.51 2°44.481 267.9 13.5 262 12.1
2012-02-08 08:37:05 51°11.509 2°44.457 266.1 13.4 264 12
2012-02-08 08:37:10 51°11.507 2°44.428 267.1 13.3 261 11.6
2012-02-08 08:37:16 51°11.505 2°44.393 266.5 13.4 266 11.6
2012-02-08 08:37:21 51°11.502 2°44.362 266.4 13.7 261 12.1
2012-02-08 08:37:25 51°11.501 2°44.339 267.1 13.3 267 11.6
2012-02-08 08:37:30 51°11.498 2°44.31 267.4 13.4 260 11.6
2012-02-08 08:37:35 51°11.497 2°44.279 266.2 13.6 269 11.7
2012-02-08 08:37:41 51°11.494 2°44.244 269.3 13.4 262 12.1
2012-02-08 08:37:45 51°11.493 2°44.22 267.7 13.4 265 11.9
2012-02-08 08:37:51 51°11.491 2°44.185 268.2 13.4 266 11.7
2012-02-08 08:37:56 51°11.491 2°44.156 270.4 13.1 270 11.6
2012-02-08 08:38:01 51°11.488 2°44.128 270.8 13.2 263 12.3
2012-02-08 08:38:05 51°11.49 2°44.104 270.3 13 271 11.8
2012-02-08 08:38:11 51°11.487 2°44.07 271.1 13 264 11.7
2012-02-08 08:38:16 51°11.486 2°44.041 269.7 13.2 265 12.1
2012-02-08 08:38:21 51°11.484 2°44.012 268.6 13.2 267 11.9
2012-02-08 08:38:26 51°11.484 2°43.983 270.6 13.2 266 11.4
2012-02-08 08:38:31 51°11.483 2°43.954 268.9 13.2 268 12.1
2012-02-08 08:38:36 51°11.481 2°43.925 271 12.8 265 11.7
2012-02-08 08:38:41 51°11.481 2°43.896 270.1 13 268 11.6
2012-02-08 08:38:45 51°11.479 2°43.873 270.1 13.3 266 11.7
2012-02-08 08:38:51 51°11.48 2°43.838 272.1 13.1 271 11.5
2012-02-08 08:38:56 51°11.478 2°43.809 271.3 13.1 265 11.5
2012-02-08 08:39:01 51°11.477 2°43.78 270.1 13.3 268 11.8
2012-02-08 08:39:05 51°11.476 2°43.757 270.4 13.3 267 11.8
2012-02-08 08:39:11 51°11.476 2°43.722 272.7 13 270 11.5
2012-02-08 08:39:16 51°11.475 2°43.694 272 13 265 11.5
2012-02-08 08:39:21 51°11.474 2°43.665 270.7 13 268 11.8
2012-02-08 08:39:26 51°11.473 2°43.637 272.2 12.9 268 12.1
2012-02-08 08:39:30 51°11.472 2°43.615 271.4 12.9 265 12
2012-02-08 08:39:36 51°11.47 2°43.58 269.8 13.2 265 12.1
2012-02-08 08:39:41 51°11.471 2°43.551 271.7 12.9 270 11.4
2012-02-08 08:39:45 51°11.469 2°43.529 271.2 12.8 264 10.8
2012-02-08 08:39:51 51°11.469 2°43.495 268.9 12.8 270 11
2012-02-08 08:39:56 51°11.466 2°43.467 270.8 12.9 264 11.8
2012-02-08 08:40:01 51°11.466 2°43.438 269.7 13 267 11.7
2012-02-08 08:40:05 51°11.465 2°43.415 270.1 12.8 266 10.9
2012-02-08 08:40:11 51°11.463 2°43.382 269.4 12.9 265 10.9
2012-02-08 08:40:16 51°11.463 2°43.353 269.4 12.9 268 10.9
2012-02-08 08:40:21 51°11.461 2°43.325 270.1 12.8 266 11.7
2012-02-08 08:40:25 51°11.461 2°43.302 271.5 12.8 267 11.4
2012-02-08 08:40:30 51°11.46 2°43.274 270.6 12.8 269 11
2012-02-08 08:40:36 51°11.459 2°43.24 272.2 13 265 11.1
2012-02-08 08:40:41 51°11.458 2°43.211 270.5 12.9 269 11.3
2012-02-08 08:40:46 51°11.456 2°43.184 271.3 12.9 264 10.9
2012-02-08 08:40:51 51°11.456 2°43.155 269.4 13.2 266 10.8
2012-02-08 08:40:56 51°11.455 2°43.126 269.5 13 269 10.2
2012-02-08 08:41:01 51°11.452 2°43.098 270.8 12.8 263 11.5
2012-02-08 08:41:05 51°11.452 2°43.075 271.5 12.7 268 10.8
2012-02-08 08:41:11 51°11.45 2°43.04 267.9 13.4 265 10.5
2012-02-08 08:41:16 51°11.449 2°43.011 270.7 13.1 267 10.9
2012-02-08 08:41:21 51°11.447 2°42.983 270 12.8 263 10.6
2012-02-08 08:41:25 51°11.446 2°42.96 267.7 12.8 265 10.9
2012-02-08 08:41:31 51°11.444 2°42.926 269.1 13.1 266 10.9
2012-02-08 08:41:36 51°11.442 2°42.897 269 13 264 10.3
2012-02-08 08:41:41 51°11.439 2°42.869 266.9 12.9 263 11
2012-02-08 08:41:45 51°11.439 2°42.846 266.7 12.8 262 10.2
2012-02-08 08:41:50 51°11.435 2°42.819 263.9 13 263 10.2
2012-02-08 08:41:56 51°11.431 2°42.785 264.9 13 258 10.7
2012-02-08 08:42:01 51°11.428 2°42.756 263.6 12.8 261 11.1
2012-02-08 08:42:05 51°11.425 2°42.734 262.8 13 256 10.6
2012-02-08 08:42:11 51°11.422 2°42.7 261.3 13 262 10.9
2012-02-08 08:42:16 51°11.417 2°42.673 263.3 12.8 256 10.6
2012-02-08 08:42:21 51°11.414 2°42.645 260.1 12.9 257 10.6
2012-02-08 08:42:25 51°11.409 2°42.624 258.4 12.8 253 10.5
2012-02-08 08:42:31 51°11.403 2°42.591 257.2 12.7 251 11.1
2012-02-08 08:42:36 51°11.397 2°42.564 253.4 12.9 249 11.1
2012-02-08 08:42:41 51°11.391 2°42.538 252.6 12.9 250 10.7
2012-02-08 08:42:45 51°11.385 2°42.516 250.8 13.2 249 10.5
2012-02-08 08:42:51 51°11.377 2°42.484 249.9 13 248 10.9
2012-02-08 08:42:56 51°11.37 2°42.458 250.7 13 245 10.8
2012-02-08 08:43:01 51°11.363 2°42.431 248.5 13.1 248 10.5
2012-02-08 08:43:05 51°11.355 2°42.411 246 13.4 240 11.1
2012-02-08 08:43:11 51°11.348 2°42.378 246.1 13 250 10.7
2012-02-08 08:43:16 51°11.339 2°42.353 247.2 13 244 10.8
2012-02-08 08:43:21 51°11.331 2°42.327 246.7 13.3 245 11.1
2012-02-08 08:43:25 51°11.326 2°42.305 247.4 12.9 248 11
2012-02-08 08:43:31 51°11.317 2°42.274 248.4 12.8 244 10.9
2012-02-08 08:43:36 51°11.31 2°42.248 246.9 12.9 247 11.1
2012-02-08 08:43:41 51°11.303 2°42.222 247.6 13 247 10.8
2012-02-08 08:43:45 51°11.298 2°42.201 249.4 12.9 248 11
2012-02-08 08:43:51 51°11.289 2°42.168 249.8 13.1 248 11.1
2012-02-08 08:43:56 51°11.283 2°42.141 250.4 13.1 250 11.5
2012-02-08 08:44:01 51°11.277 2°42.115 251.3 13 249 10.8
2012-02-08 08:44:05 51°11.271 2°42.093 250.5 13.4 249 11.1
2012-02-08 08:44:11 51°11.263 2°42.06 251.2 13.2 249 11.3
2012-02-08 08:44:16 51°11.257 2°42.033 251.8 13 248 11.1
2012-02-08 08:44:21 51°11.251 2°42.005 250.2 13.2 250 10.9
2012-02-08 08:44:25 51°11.245 2°41.984 251.4 13.1 249 11.4
2012-02-08 08:44:30 51°11.238 2°41.956 250.9 13.5 246 11.3
2012-02-08 08:44:36 51°11.23 2°41.922 249.3 13.6 250 10.8
2012-02-08 08:44:41 51°11.221 2°41.897 248.5 13.5 244 11.5
2012-02-08 08:44:45 51°11.215 2°41.875 246.8 13.4 243 11.6
2012-02-08 08:44:51 51°11.205 2°41.844 244.7 13.2 242 11.1
2012-02-08 08:44:56 51°11.196 2°41.819 242.5 13.3 240 10.9
2012-02-08 08:45:01 51°11.186 2°41.793 240.2 13.4 239 11.5
2012-02-08 08:45:06 51°11.176 2°41.768 239.7 13.4 239 11.1
2012-02-08 08:45:11 51°11.165 2°41.743 237.3 13.4 238 11.5
2012-02-08 08:45:16 51°11.155 2°41.719 238.5 13.1 234 11.4
2012-02-08 08:45:21 51°11.145 2°41.695 235.9 13.3 237 11.1
2012-02-08 08:45:25 51°11.136 2°41.675 236.7 13.6 237 11.4
2012-02-08 08:45:31 51°11.124 2°41.645 237.8 13.5 236 11.4
2012-02-08 08:45:36 51°11.113 2°41.621 235.7 13.4 234 11.2
2012-02-08 08:45:41 51°11.102 2°41.597 233.8 13.1 236 11.2
2012-02-08 08:45:45 51°11.095 2°41.578 237.4 13 238 11.1
2012-02-08 08:45:51 51°11.081 2°41.549 235.2 13.7 234 11.2
2012-02-08 08:45:56 51°11.071 2°41.525 234.7 13.4 236 11.5
2012-02-08 08:46:01 51°11.058 2°41.502 233.6 13.5 228 11.5
2012-02-08 08:46:05 51°11.052 2°41.482 233.1 13 240 11.2
2012-02-08 08:46:10 51°11.04 2°41.459 237.4 13.5 228 11.5
2012-02-08 08:46:16 51°11.026 2°41.429 232.2 14 236 11.6
2012-02-08 08:46:21 51°11.014 2°41.408 232.4 13.2 227 11.9
2012-02-08 08:46:25 51°11.006 2°41.389 230.4 12.6 236 11.3
2012-02-08 08:46:31 51°10.992 2°41.361 232.3 13.6 231 11.6
2012-02-08 08:46:36 51°10.981 2°41.335 233.4 14.1 235 11.4
2012-02-08 08:46:41 51°10.968 2°41.314 231.2 13.4 227 12.1
2012-02-08 08:46:45 51°10.961 2°41.295 231.6 12.8 238 11.1
2012-02-08 08:46:51 51°10.947 2°41.266 233.8 13.5 235 11.9
2012-02-08 08:46:56 51°10.938 2°41.241 238 13.8 236 11.9
2012-02-08 08:47:01 51°10.926 2°41.216 233.1 13.7 235 12
2012-02-08 08:47:05 51°10.919 2°41.196 236.1 13.3 237 11.6
2012-02-08 08:47:11 51°10.906 2°41.167 237.9 13.4 239 11.6
2012-02-08 08:47:16 51°10.895 2°41.142 237.3 13.7 233 11.6
2012-02-08 08:47:21 51°10.885 2°41.116 235.2 13.8 238 12
2012-02-08 08:47:25 51°10.877 2°41.095 236.9 13.5 235 11.7
2012-02-08 08:47:31 51°10.864 2°41.066 235.6 13.4 238 11.6
2012-02-08 08:47:36 51°10.854 2°41.042 237.8 13.1 237 11.8
2012-02-08 08:47:41 51°10.843 2°41.019 236.7 13.3 232 11.6
2012-02-08 08:47:46 51°10.832 2°40.994 231.7 13.7 234 12.4
2012-02-08 08:47:51 51°10.821 2°40.97 234.5 13.4 235 11.5
2012-02-08 08:47:56 51°10.81 2°40.947 233.6 13.4 234 12.2
2012-02-08 08:48:01 51°10.799 2°40.922 234 13.6 235 11.8
2012-02-08 08:48:05 51°10.79 2°40.902 234.8 13.7 235 12
2012-02-08 08:48:11 51°10.779 2°40.872 236 13.5 238 11.6
2012-02-08 08:48:16 51°10.768 2°40.847 236.8 13.5 236 12.4
2012-02-08 08:48:21 51°10.759 2°40.821 238 13.3 238 11.7
2012-02-08 08:48:25 51°10.749 2°40.803 234.8 13.5 231 12.1
2012-02-08 08:48:31 51°10.737 2°40.773 234.2 13.6 237 12.4
2012-02-08 08:48:36 51°10.727 2°40.748 236.9 13.4 238 12.4
2012-02-08 08:48:41 51°10.716 2°40.723 237 13.5 236 12.5
2012-02-08 08:48:45 51°10.708 2°40.703 237.3 13.6 236 12.2
2012-02-08 08:48:50 51°10.697 2°40.678 235.3 13.8 236 12.4
2012-02-08 08:48:55 51°10.688 2°40.652 237.1 13.4 239 12.2
2012-02-08 08:49:01 51°10.674 2°40.623 236 13.9 232 12.2
2012-02-08 08:49:06 51°10.664 2°40.596 234.6 13.9 239 12.4
2012-02-08 08:49:11 51°10.653 2°40.572 236.5 13.5 236 12.6
2012-02-08 08:49:16 51°10.642 2°40.546 236.5 13.9 237 12.5
2012-02-08 08:49:21 51°10.634 2°40.519 237.2 13.7 243 12.2
2012-02-08 08:49:25 51°10.625 2°40.5 238.8 13.8 234 12.8
2012-02-08 08:49:31 51°10.613 2°40.468 236.9 13.7 240 12.6
2012-02-08 08:49:36 51°10.603 2°40.443 237.8 13.5 237 12.6
2012-02-08 08:49:41 51°10.593 2°40.417 238 13.8 238 12.5
2012-02-08 08:49:46 51°10.583 2°40.392 237.9 13.8 239 12.5
2012-02-08 08:49:51 51°10.573 2°40.367 238.8 13.6 237 12.5
2012-02-08 08:49:56 51°10.562 2°40.34 237 14.2 238 12.9
2012-02-08 08:50:01 51°10.552 2°40.313 237.2 13.8 241 13.1
2012-02-08 08:50:05 51°10.545 2°40.293 239.6 13.7 236 12.7
2012-02-08 08:50:11 51°10.533 2°40.261 237.4 14 241 13
2012-02-08 08:50:16 51°10.522 2°40.237 240.8 13.8 236 12.5
2012-02-08 08:50:21 51°10.511 2°40.212 236 13.8 235 13.3
2012-02-08 08:50:25 51°10.504 2°40.191 236.7 13.3 238 12.5
2012-02-08 08:50:30 51°10.493 2°40.166 236.4 13.8 237 13
2012-02-08 08:50:36 51°10.482 2°40.134 239 13.6 242 13.1
2012-02-08 08:50:41 51°10.472 2°40.109 240.7 13.7 238 12.8
2012-02-08 08:50:45 51°10.465 2°40.087 239.8 14 243 13.2
2012-02-08 08:50:51 51°10.454 2°40.055 242.9 13.7 243 12.7
2012-02-08 08:50:56 51°10.446 2°40.028 244 13.7 244 13.3
2012-02-08 08:51:01 51°10.44 2°40 246.8 13.5 248 13
2012-02-08 08:51:05 51°10.433 2°39.978 247 13.4 247 12.8
2012-02-08 08:51:11 51°10.424 2°39.945 247.8 13.5 247 12.9
2012-02-08 08:51:16 51°10.418 2°39.918 248.9 13.4 251 13.1
2012-02-08 08:51:21 51°10.411 2°39.89 250.8 13.6 246 13
2012-02-08 08:51:25 51°10.406 2°39.868 249.3 13.6 251 13.2
2012-02-08 08:51:30 51°10.4 2°39.839 251.5 13.6 249 12.9
2012-02-08 08:51:36 51°10.392 2°39.807 250.9 13.4 250 13.4
2012-02-08 08:51:41 51°10.385 2°39.779 251.9 13.6 247 13.3
2012-02-08 08:51:45 51°10.38 2°39.756 250.9 13.7 252 13.3
2012-02-08 08:51:51 51°10.372 2°39.722 252.3 13.6 249 13.2
2012-02-08 08:51:56 51°10.366 2°39.693 251.9 13.7 251 13.4
2012-02-08 08:52:01 51°10.359 2°39.665 252.3 13.6 249 13.2
2012-02-08 08:52:06 51°10.353 2°39.637 250.4 13.7 249 13.2
2012-02-08 08:52:11 51°10.345 2°39.609 250 14 249 13.6
2012-02-08 08:52:16 51°10.34 2°39.579 251.2 13.7 253 13.9
2012-02-08 08:52:21 51°10.332 2°39.552 253 13.8 246 13.9
2012-02-08 08:52:25 51°10.327 2°39.529 250.4 13.8 249 13.7
2012-02-08 08:52:31 51°10.318 2°39.495 249.9 13.6 247 13.8
2012-02-08 08:52:36 51°10.312 2°39.467 250.8 13.6 250 14
2012-02-08 08:52:41 51°10.304 2°39.438 250.4 13.9 247 13.9
2012-02-08 08:52:45 51°10.299 2°39.416 249.9 13.8 248 14.2
2012-02-08 08:52:51 51°10.29 2°39.384 250 13.5 245 14.2
2012-02-08 08:52:56 51°10.284 2°39.355 248.8 13.6 252 13.7
2012-02-08 08:53:01 51°10.277 2°39.328 250 13.5 249 14.3
2012-02-08 08:53:05 51°10.272 2°39.305 251.6 13.5 247 14.2
2012-02-08 08:53:10 51°10.264 2°39.278 248.8 13.6 250 14.1
2012-02-08 08:53:16 51°10.256 2°39.244 250.6 13.6 247 14.1
2012-02-08 08:53:21 51°10.248 2°39.216 248.5 13.8 248 14.5
2012-02-08 08:53:25 51°10.242 2°39.194 248.8 13.8 244 14.7
2012-02-08 08:53:31 51°10.234 2°39.159 247.8 13.9 250 14.3
2012-02-08 08:53:36 51°10.227 2°39.132 248.4 13.8 249 14
2012-02-08 08:53:41 51°10.219 2°39.105 250.1 13.6 247 14.6
2012-02-08 08:53:45 51°10.215 2°39.082 249.8 13.5 250 14.1
2012-02-08 08:53:51 51°10.204 2°39.048 248.4 14.1 246 14.7
2012-02-08 08:53:56 51°10.199 2°39.02 250.5 13.5 251 14.4
2012-02-08 08:54:01 51°10.19 2°38.993 249 13.8 242 14.9
2012-02-08 08:54:05 51°10.185 2°38.97 248 13.7 253 14.5
2012-02-08 08:54:11 51°10.175 2°38.937 250.2 13.7 243 14.5
2012-02-08 08:54:16 51°10.169 2°38.909 246.5 13.5 251 14.6
2012-02-08 08:54:21 51°10.161 2°38.883 249.1 13.5 243 14.5
2012-02-08 08:54:26 51°10.154 2°38.855 246.8 13.6 247 14.6
2012-02-08 08:54:31 51°10.146 2°38.828 247.8 13.6 244 14.5
2012-02-08 08:54:36 51°10.139 2°38.799 246.7 13.6 249 14.2
2012-02-08 08:54:41 51°10.131 2°38.772 247 13.4 247 14.2
2012-02-08 08:54:45 51°10.125 2°38.751 247.5 13.6 245 14.8
2012-02-08 08:54:51 51°10.117 2°38.717 247.8 13.7 248 14.7
2012-02-08 08:54:56 51°10.11 2°38.688 248.3 13.7 248 14.3
2012-02-08 08:55:01 51°10.103 2°38.66 249.2 13.8 250 14.7
2012-02-08 08:55:05 51°10.096 2°38.638 250.5 13.8 246 14.8
2012-02-08 08:55:11 51°10.087 2°38.604 248.5 14 247 14.7
2012-02-08 08:55:16 51°10.08 2°38.576 247 13.8 249 14
2012-02-08 08:55:21 51°10.072 2°38.549 248.9 13.7 247 14.6
2012-02-08 08:55:25 51°10.066 2°38.526 248.5 13.9 246 14.9
2012-02-08 08:55:30 51°10.059 2°38.498 247.6 13.9 248 15.2
2012-02-08 08:55:36 51°10.05 2°38.464 248.8 13.9 247 15.1
2012-02-08 08:55:41 51°10.044 2°38.434 249.3 14 250 15.1
2012-02-08 08:55:46 51°10.037 2°38.406 250.9 13.9 250 14.9
2012-02-08 08:55:50 51°10.03 2°38.383 249.1 14.1 245 15.3
2012-02-08 08:55:55 51°10.024 2°38.354 250.1 13.9 252 14.7
2012-02-08 08:56:01 51°10.013 2°38.321 249 14 242 15.4